Time;durP1;ratioP1;P1;durP2;ratioP2;P2;SDS_P1;SDS_P2;PMS_P1;PMS_P2;Temp;Humidity;BMP_temperature;BMP_pressure;BME280_temperature;BME280_humidity;BME280_pressure;Samples;Min_cycle;Max_cycle;Signal;HPM_P1;HPM_P2
2022/01/14 00:01:51;;;;;;;27.08;13.82;;;6.40;99.90;;;;;;4967506;28;20053;-58
2022/01/14 00:04:17;;;;;;;31.10;14.57;;;6.40;99.90;;;;;;4993670;28;20031;-57
2022/01/14 00:06:43;;;;;;;33.70;15.27;;;6.40;99.90;;;;;;4965912;28;20041;-58
2022/01/14 00:09:11;;;;;;;30.90;14.80;;;6.40;99.90;;;;;;4977859;28;20038;-58
2022/01/14 00:11:41;;;;;;;26.58;15.90;;;6.40;99.90;;;;;;4970163;28;20043;-59
2022/01/14 00:14:37;;;;;;;35.92;16.70;;;6.40;99.90;;;;;;4984251;28;20046;-58
2022/01/14 00:16:56;;;;;;;36.42;15.10;;;6.40;99.90;;;;;;4976698;28;20190;-57
2022/01/14 00:19:22;;;;;;;35.75;16.50;;;6.50;99.90;;;;;;4988477;28;20042;-59
2022/01/14 00:21:47;;;;;;;32.88;15.55;;;6.50;99.90;;;;;;4973359;28;20399;-59
2022/01/14 00:34:35;;;;;;;32.60;16.38;;;6.50;99.90;;;;;;4961946;28;20468;-58
2022/01/14 00:37:02;;;;;;;34.50;16.33;;;6.50;99.90;;;;;;4994210;28;20037;-58
2022/01/14 00:39:27;;;;;;;32.45;15.63;;;6.50;99.90;;;;;;4980661;28;20045;-58
2022/01/14 00:41:53;;;;;;;36.03;16.58;;;6.50;99.90;;;;;;4972400;28;20039;-59
2022/01/14 00:44:20;;;;;;;32.30;15.38;;;6.50;99.90;;;;;;4984970;28;20498;-58
2022/01/14 00:46:47;;;;;;;34.25;16.08;;;6.50;99.90;;;;;;4987486;28;20074;-59
2022/01/14 00:49:14;;;;;;;34.40;16.67;;;6.50;99.90;;;;;;4985354;28;20492;-58
2022/01/14 00:51:40;;;;;;;32.63;16.52;;;6.50;99.90;;;;;;4987695;28;20033;-58
2022/01/14 00:54:07;;;;;;;32.78;15.73;;;6.50;99.90;;;;;;4976203;28;20427;-58
2022/01/14 00:56:46;;;;;;;38.28;16.67;;;6.50;99.90;;;;;;4983955;28;20045;-58
2022/01/14 00:59:15;;;;;;;36.17;17.35;;;6.50;99.90;;;;;;4974736;28;20328;-59
2022/01/14 01:01:46;;;;;;;32.92;16.85;;;6.40;99.90;;;;;;4985272;28;20165;-58
2022/01/14 01:04:13;;;;;;;34.45;17.08;;;6.40;99.90;;;;;;4991006;28;20365;-59
2022/01/14 01:06:40;;;;;;;47.28;18.30;;;6.40;99.90;;;;;;4966998;28;20335;-57
2022/01/14 01:09:11;;;;;;;31.02;16.33;;;6.40;99.90;;;;;;4999403;28;20503;-59
2022/01/14 01:11:42;;;;;;;33.40;16.50;;;6.40;99.90;;;;;;4969974;28;20046;-58
2022/01/14 01:14:15;;;;;;;38.63;16.65;;;6.40;99.90;;;;;;4974572;28;20496;-58
2022/01/14 01:16:41;;;;;;;33.60;18.03;;;6.40;99.90;;;;;;4978738;28;20053;-58
2022/01/14 01:19:07;;;;;;;38.08;18.50;;;6.40;99.90;;;;;;4958596;28;20531;-58
2022/01/14 01:21:34;;;;;;;34.70;18.80;;;6.40;99.90;;;;;;4986215;28;20042;-59
2022/01/14 01:23:59;;;;;;;32.63;17.17;;;6.40;99.90;;;;;;4979321;28;20046;-59
2022/01/14 01:26:33;;;;;;;36.08;17.58;;;6.40;99.90;;;;;;4992186;28;20100;-59
2022/01/14 01:29:17;;;;;;;38.95;18.35;;;6.40;99.90;;;;;;4989736;28;20530;-57
2022/01/14 01:31:45;;;;;;;37.25;18.75;;;6.50;99.90;;;;;;4976990;28;20438;-58
2022/01/14 01:34:21;;;;;;;37.88;18.48;;;6.50;99.90;;;;;;4990494;28;20356;-58
2022/01/14 01:36:50;;;;;;;32.05;17.15;;;6.60;99.90;;;;;;4990481;28;20046;-59
2022/01/14 01:39:21;;;;;;;37.67;17.42;;;6.60;99.90;;;;;;4987754;28;20572;-58
2022/01/14 01:41:51;;;;;;;31.27;17.75;;;6.60;99.90;;;;;;4991176;28;20049;-58
2022/01/14 01:44:18;;;;;;;38.47;18.17;;;6.60;99.90;;;;;;5009054;28;20038;-59
2022/01/14 01:46:47;;;;;;;37.40;20.85;;;6.70;99.90;;;;;;4977342;28;20388;-59
2022/01/14 01:49:14;;;;;;;31.42;17.60;;;6.70;99.90;;;;;;4983466;28;20052;-58
2022/01/14 01:51:43;;;;;;;37.67;18.50;;;6.60;99.90;;;;;;4989398;28;20038;-59
2022/01/14 01:54:09;;;;;;;36.20;18.73;;;6.70;99.90;;;;;;5001560;28;20037;-58
2022/01/14 01:56:35;;;;;;;34.60;19.27;;;6.70;99.90;;;;;;4976227;28;20046;-59
2022/01/14 01:59:01;;;;;;;36.42;18.58;;;6.70;99.90;;;;;;5003548;28;20034;-58
2022/01/14 02:01:27;;;;;;;41.90;19.23;;;6.70;99.90;;;;;;4974014;28;20058;-58
2022/01/14 02:03:54;;;;;;;33.70;17.52;;;6.70;99.90;;;;;;4991988;28;20034;-58
2022/01/14 02:06:21;;;;;;;36.05;18.63;;;6.70;99.90;;;;;;5004869;28;20086;-58
2022/01/14 02:08:48;;;;;;;40.70;18.63;;;6.80;99.90;;;;;;4985693;28;20050;-59
2022/01/14 02:11:14;;;;;;;39.38;18.00;;;6.70;99.90;;;;;;4985252;28;20045;-59
2022/01/14 02:13:41;;;;;;;39.75;18.75;;;6.70;99.90;;;;;;4963892;28;20054;-59
2022/01/14 02:16:18;;;;;;;38.58;17.83;;;6.70;99.90;;;;;;4958271;28;20056;-59
2022/01/14 02:26:52;;;;;;;43.15;20.80;;;6.70;99.90;;;;;;4989241;28;20106;-59
2022/01/14 02:29:20;;;;;;;40.33;17.67;;;6.70;99.90;;;;;;4984305;28;20058;-58
2022/01/14 02:31:46;;;;;;;36.97;17.80;;;6.70;99.90;;;;;;4973989;28;20129;-58
2022/01/14 02:34:14;;;;;;;36.35;17.90;;;6.60;99.90;;;;;;4978312;28;20054;-59
2022/01/14 02:36:42;;;;;;;40.08;17.60;;;6.70;99.90;;;;;;4996887;28;20486;-58
2022/01/14 02:39:09;;;;;;;40.10;17.98;;;6.70;99.90;;;;;;4995551;28;20038;-58
2022/01/14 02:41:37;;;;;;;45.95;18.23;;;6.70;99.90;;;;;;4994438;28;20038;-59
2022/01/14 02:44:09;;;;;;;42.45;18.92;;;6.70;99.90;;;;;;4993957;28;20046;-63
2022/01/14 02:46:40;;;;;;;45.53;17.85;;;6.70;99.90;;;;;;4997753;28;20571;-62
2022/01/14 02:49:06;;;;;;;36.00;18.77;;;6.70;99.90;;;;;;4970169;28;20054;-61
2022/01/14 02:51:32;;;;;;;47.28;18.00;;;6.70;99.90;;;;;;4980516;28;20400;-61
2022/01/14 02:54:11;;;;;;;39.53;17.77;;;6.70;99.90;;;;;;4993570;28;20045;-63
2022/01/14 02:56:41;;;;;;;38.60;18.20;;;6.60;99.90;;;;;;4985456;28;20518;-63
2022/01/14 02:59:09;;;;;;;36.65;18.13;;;6.60;99.90;;;;;;4991659;28;20045;-63
2022/01/14 03:01:36;;;;;;;38.22;18.20;;;6.70;99.90;;;;;;4980156;28;20046;-64
2022/01/14 03:04:03;;;;;;;41.13;18.33;;;6.60;99.90;;;;;;5002545;28;20090;-62
2022/01/14 03:06:30;;;;;;;40.83;18.52;;;6.70;99.90;;;;;;4988620;28;20043;-66
2022/01/14 03:08:57;;;;;;;45.05;19.45;;;6.60;99.90;;;;;;4995473;28;20568;-60
2022/01/14 03:11:26;;;;;;;32.45;17.15;;;6.70;99.90;;;;;;4979310;28;20050;-62
2022/01/14 03:13:52;;;;;;;39.67;18.50;;;6.70;99.90;;;;;;4985702;28;20039;-62
2022/01/14 03:16:20;;;;;;;41.33;17.42;;;6.70;99.90;;;;;;4965808;28;20058;-60
2022/01/14 03:18:49;;;;;;;37.78;17.90;;;6.70;99.90;;;;;;4997961;28;20034;-61
2022/01/14 03:21:17;;;;;;;37.63;18.83;;;6.70;99.90;;;;;;4997657;28;20416;-64
2022/01/14 03:23:50;;;;;;;30.42;17.60;;;6.70;99.90;;;;;;5005530;28;20042;-64
2022/01/14 03:26:19;;;;;;;30.80;17.10;;;6.70;99.90;;;;;;5001064;28;20030;-66
2022/01/14 03:28:46;;;;;;;38.47;17.88;;;6.70;99.90;;;;;;4999769;28;20335;-64
2022/01/14 03:31:12;;;;;;;33.55;18.20;;;6.70;99.90;;;;;;4998959;28;20038;-65
2022/01/14 03:33:38;;;;;;;30.33;16.15;;;6.70;99.90;;;;;;4986609;28;20042;-57
2022/01/14 03:36:06;;;;;;;29.20;17.45;;;6.70;99.90;;;;;;5000865;28;20483;-65
2022/01/14 03:38:32;;;;;;;33.50;19.00;;;6.70;99.90;;;;;;4998814;28;20518;-61
2022/01/14 03:40:58;;;;;;;39.88;18.80;;;6.80;99.90;;;;;;4994637;28;20085;-65
2022/01/14 03:43:24;;;;;;;35.80;18.42;;;6.80;99.90;;;;;;5001077;28;20836;-63
2022/01/14 03:45:51;;;;;;;38.15;18.50;;;6.80;99.90;;;;;;4989655;28;20137;-62
2022/01/14 03:48:19;;;;;;;36.92;19.17;;;6.70;99.90;;;;;;4996538;28;20043;-62
2022/01/14 03:50:46;;;;;;;39.28;18.55;;;6.80;99.90;;;;;;4991879;28;20042;-63
2022/01/14 03:53:12;;;;;;;32.42;18.73;;;6.70;99.90;;;;;;4971776;28;20130;-63
2022/01/14 03:55:40;;;;;;;38.22;18.45;;;6.80;99.90;;;;;;4983676;28;20050;-61
2022/01/14 03:58:06;;;;;;;37.33;18.42;;;6.80;99.90;;;;;;4993554;28;20133;-64
2022/01/14 04:00:32;;;;;;;36.17;18.30;;;6.80;99.90;;;;;;4970718;28;20447;-62
2022/01/14 04:02:58;;;;;;;38.28;19.27;;;6.70;99.90;;;;;;4983729;28;20037;-63
2022/01/14 04:05:24;;;;;;;41.92;17.95;;;6.70;99.90;;;;;;4990282;28;20225;-64
2022/01/14 04:07:50;;;;;;;35.80;19.08;;;6.70;99.90;;;;;;4984841;28;20039;-61
2022/01/14 04:10:18;;;;;;;37.25;19.42;;;6.70;99.90;;;;;;4994904;28;20446;-63
2022/01/14 04:17:56;;;;;;;39.20;19.80;;;6.70;99.90;;;;;;4988652;28;20141;-65
2022/01/14 04:20:21;;;;;;;38.05;20.42;;;6.70;99.90;;;;;;4994304;28;20535;-62
2022/01/14 04:22:48;;;;;;;35.58;19.33;;;6.70;99.90;;;;;;4997322;28;20039;-63
2022/01/14 04:25:15;;;;;;;36.88;19.98;;;6.70;99.90;;;;;;4974369;28;20035;-61
2022/01/14 04:27:41;;;;;;;36.55;19.58;;;6.70;99.90;;;;;;4987105;28;20042;-61
2022/01/14 04:30:08;;;;;;;42.30;20.10;;;6.70;99.90;;;;;;4995647;28;20105;-61
2022/01/14 04:32:33;;;;;;;37.00;20.20;;;6.70;99.90;;;;;;4987544;28;20050;-59
2022/01/14 04:34:59;;;;;;;40.60;21.85;;;6.70;99.90;;;;;;4976886;28;20045;-59
2022/01/14 04:37:25;;;;;;;40.17;18.70;;;6.60;99.90;;;;;;4974919;28;20052;-59
2022/01/14 04:39:50;;;;;;;37.10;20.00;;;6.60;99.90;;;;;;4998490;28;20416;-59
2022/01/14 04:42:16;;;;;;;38.88;20.05;;;6.60;99.90;;;;;;4957794;28;20129;-59
2022/01/14 04:44:42;;;;;;;33.60;19.98;;;6.60;99.90;;;;;;4992548;28;20034;-58
2022/01/14 04:47:17;;;;;;;38.85;21.00;;;6.60;99.90;;;;;;4975276;28;20068;-59
2022/01/14 04:49:43;;;;;;;34.05;18.75;;;6.60;99.90;;;;;;4990507;28;20111;-61
2022/01/14 04:52:09;;;;;;;38.75;20.08;;;6.60;99.90;;;;;;4989106;28;20038;-59
2022/01/14 04:54:35;;;;;;;35.78;21.02;;;6.60;99.90;;;;;;4985749;28;20046;-59
2022/01/14 04:57:02;;;;;;;33.92;20.23;;;6.60;99.90;;;;;;5003123;28;20026;-59
2022/01/14 04:59:28;;;;;;;35.50;19.33;;;6.60;99.90;;;;;;5004783;28;20094;-59
2022/01/14 05:01:56;;;;;;;29.50;17.67;;;6.50;99.90;;;;;;5009583;28;20029;-59
2022/01/14 05:04:22;;;;;;;40.47;21.35;;;6.60;99.90;;;;;;5006814;28;20038;-59
2022/01/14 05:06:55;;;;;;;42.67;20.65;;;6.50;99.90;;;;;;5000234;28;20131;-58
2022/01/14 05:09:28;;;;;;;37.08;19.00;;;6.50;99.90;;;;;;4991837;28;20295;-60
2022/01/14 05:11:58;;;;;;;39.50;21.48;;;6.50;99.90;;;;;;4986510;28;20038;-61
2022/01/14 05:16:57;;;;;;;34.83;19.20;;;6.50;99.90;;;;;;5000119;28;20049;-59
2022/01/14 05:19:23;;;;;;;34.97;20.20;;;6.50;99.90;;;;;;4985035;28;20411;-59
2022/01/14 05:21:49;;;;;;;33.38;19.60;;;6.50;99.90;;;;;;5002719;28;20484;-59
2022/01/14 05:24:15;;;;;;;34.42;19.58;;;6.50;99.90;;;;;;4981368;28;20276;-57
2022/01/14 05:26:40;;;;;;;34.65;19.63;;;6.60;99.90;;;;;;4979754;28;20669;-58
2022/01/14 05:29:06;;;;;;;44.40;20.45;;;6.50;99.90;;;;;;4998666;27;20533;-58
2022/01/14 05:31:44;;;;;;;36.15;18.42;;;6.50;99.90;;;;;;4997693;28;20037;-57
2022/01/14 05:34:10;;;;;;;30.30;18.95;;;6.50;99.90;;;;;;5021210;27;20066;-59
2022/01/14 05:36:36;;;;;;;35.38;19.52;;;6.50;99.90;;;;;;4996962;28;20041;-57
2022/01/14 05:39:03;;;;;;;34.55;19.27;;;6.50;99.90;;;;;;5000323;28;20514;-58
2022/01/14 05:41:29;;;;;;;29.40;18.45;;;6.50;99.90;;;;;;5006078;28;20133;-59
2022/01/14 05:43:54;;;;;;;36.42;18.05;;;6.50;99.90;;;;;;5012744;28;20506;-59
2022/01/14 05:46:20;;;;;;;35.90;17.90;;;6.50;99.90;;;;;;5002054;28;20090;-58
2022/01/14 05:48:46;;;;;;;31.45;18.80;;;6.50;99.90;;;;;;4997909;28;20118;-59
2022/01/14 05:51:11;;;;;;;37.38;18.58;;;6.50;99.90;;;;;;4980329;28;20046;-58
2022/01/14 05:53:37;;;;;;;33.90;18.80;;;6.50;99.90;;;;;;4983375;28;20041;-59
2022/01/14 05:56:03;;;;;;;34.08;19.20;;;6.50;99.90;;;;;;5002634;28;20159;-58
2022/01/14 05:58:29;;;;;;;40.63;18.50;;;6.50;99.90;;;;;;5001039;28;20038;-58
2022/01/14 06:00:54;;;;;;;34.67;19.17;;;6.50;99.90;;;;;;4981337;28;20080;-59
2022/01/14 06:03:22;;;;;;;35.38;17.77;;;6.50;99.90;;;;;;4992546;28;20034;-58
2022/01/14 06:05:48;;;;;;;38.30;19.13;;;6.50;99.90;;;;;;4993682;27;20077;-59
2022/01/14 06:08:14;;;;;;;39.03;20.63;;;6.50;99.90;;;;;;4999132;28;20121;-57
2022/01/14 06:10:39;;;;;;;30.13;18.65;;;6.50;99.90;;;;;;4998911;28;20132;-59
2022/01/14 06:13:05;;;;;;;41.38;18.77;;;6.40;99.90;;;;;;5001448;28;20048;-58
2022/01/14 06:15:31;;;;;;;36.03;17.80;;;6.40;99.90;;;;;;4978054;27;21578;-59
2022/01/14 06:17:57;;;;;;;34.65;19.52;;;6.50;99.90;;;;;;4996363;28;20045;-57
2022/01/14 06:20:23;;;;;;;37.88;18.95;;;6.40;99.90;;;;;;4983192;28;20122;-58
2022/01/14 06:22:49;;;;;;;37.85;19.58;;;6.40;99.90;;;;;;5011544;27;20964;-59
2022/01/14 06:25:15;;;;;;;38.08;19.33;;;6.40;99.90;;;;;;4964867;28;20033;-59
2022/01/14 06:27:41;;;;;;;32.90;17.65;;;6.40;99.90;;;;;;4992089;28;20052;-59
2022/01/14 06:30:07;;;;;;;29.80;17.23;;;6.40;99.90;;;;;;4982058;28;20090;-59
2022/01/14 06:32:35;;;;;;;33.85;18.10;;;6.40;99.90;;;;;;4974293;28;20042;-58
2022/01/14 06:35:02;;;;;;;35.55;18.33;;;6.40;99.90;;;;;;5004160;28;20046;-58
2022/01/14 06:37:27;;;;;;;31.88;18.17;;;6.40;99.90;;;;;;5000085;28;20045;-58
2022/01/14 06:39:54;;;;;;;27.45;17.13;;;6.40;99.90;;;;;;4994676;28;20037;-59
2022/01/14 06:42:20;;;;;;;33.35;17.60;;;6.40;99.90;;;;;;4998428;28;20206;-56
2022/01/14 06:44:46;;;;;;;33.25;17.80;;;6.30;99.90;;;;;;4971471;28;20455;-57
2022/01/14 06:47:12;;;;;;;34.97;16.42;;;6.40;99.90;;;;;;4981655;28;20084;-55
2022/01/14 06:49:38;;;;;;;36.85;16.48;;;6.40;99.90;;;;;;4998128;28;20125;-57
2022/01/14 06:52:03;;;;;;;26.05;15.10;;;6.40;99.90;;;;;;4998133;28;20491;-56
2022/01/14 06:54:29;;;;;;;32.78;15.55;;;6.50;99.90;;;;;;4999680;28;20073;-58
2022/01/14 06:56:55;;;;;;;36.30;14.80;;;6.40;99.90;;;;;;4995372;28;20033;-58
2022/01/14 06:59:21;;;;;;;24.70;13.15;;;6.50;99.90;;;;;;4996331;28;20041;-57
2022/01/14 07:01:46;;;;;;;26.42;12.27;;;6.50;99.90;;;;;;5000918;28;20095;-58
2022/01/14 07:04:12;;;;;;;24.77;12.35;;;6.50;99.90;;;;;;4995499;28;20530;-57
2022/01/14 07:06:38;;;;;;;27.27;13.57;;;6.60;99.90;;;;;;4982961;28;20519;-58
2022/01/14 07:09:04;;;;;;;24.38;10.48;;;6.60;99.90;;;;;;5000936;28;20052;-57
2022/01/14 07:11:35;;;;;;;26.60;11.70;;;6.60;99.90;;;;;;4995522;28;20066;-56
2022/01/14 07:14:01;;;;;;;26.83;9.38;;;6.60;99.90;;;;;;4998106;28;20053;-58
2022/01/14 07:16:27;;;;;;;22.20;10.52;;;6.60;99.90;;;;;;4997039;28;20051;-56
2022/01/14 07:18:53;;;;;;;22.45;9.15;;;6.60;99.90;;;;;;4992193;28;20120;-57
2022/01/14 07:21:18;;;;;;;21.08;9.45;;;6.60;99.90;;;;;;5003539;28;20054;-58
2022/01/14 07:23:44;;;;;;;23.23;8.98;;;6.60;99.90;;;;;;4991947;28;20057;-56
2022/01/14 07:26:10;;;;;;;25.95;9.18;;;6.70;99.90;;;;;;4999314;28;20034;-57
2022/01/14 07:28:36;;;;;;;21.80;9.25;;;6.60;99.90;;;;;;5000303;28;20445;-56
2022/01/14 07:31:01;;;;;;;24.05;8.63;;;6.60;99.90;;;;;;5005814;28;20684;-58
2022/01/14 07:33:27;;;;;;;21.95;9.27;;;6.70;99.90;;;;;;4985497;28;20442;-58
2022/01/14 07:35:53;;;;;;;26.17;8.93;;;6.70;99.90;;;;;;5004166;28;20181;-58
2022/01/14 07:38:18;;;;;;;19.55;7.53;;;6.70;99.90;;;;;;5002857;28;20256;-59
2022/01/14 07:40:44;;;;;;;19.42;7.95;;;6.70;99.90;;;;;;4981922;28;20069;-59
2022/01/14 07:43:10;;;;;;;19.40;7.55;;;6.70;99.90;;;;;;5003396;28;20073;-58
2022/01/14 07:45:36;;;;;;;23.90;9.57;;;6.70;99.90;;;;;;4988432;28;20042;-59
2022/01/14 07:48:01;;;;;;;21.15;8.18;;;6.80;99.90;;;;;;4993668;27;20548;-57
2022/01/14 07:50:27;;;;;;;21.90;7.88;;;6.70;99.90;;;;;;4999279;28;20048;-57
2022/01/14 07:52:53;;;;;;;23.25;8.00;;;6.70;99.90;;;;;;4977150;28;20565;-59
2022/01/14 07:55:18;;;;;;;23.02;9.13;;;6.70;99.90;;;;;;4992656;28;20508;-58
2022/01/14 07:57:44;;;;;;;25.70;8.95;;;6.70;99.90;;;;;;4998992;28;20086;-59
2022/01/14 08:00:10;;;;;;;21.05;7.78;;;6.70;99.90;;;;;;4994295;28;20396;-58
2022/01/14 08:02:37;;;;;;;21.75;8.88;;;6.70;99.90;;;;;;4990239;28;20061;-57
2022/01/14 08:05:03;;;;;;;25.92;8.68;;;6.70;99.90;;;;;;4997408;28;20041;-57
2022/01/14 08:07:30;;;;;;;20.42;8.77;;;6.80;99.90;;;;;;4990229;28;20049;-57
2022/01/14 08:09:56;;;;;;;23.02;10.25;;;6.80;99.90;;;;;;4995044;28;20044;-59
2022/01/14 08:12:21;;;;;;;28.35;10.43;;;6.80;99.90;;;;;;4984545;28;20034;-58
2022/01/14 08:14:47;;;;;;;20.88;10.00;;;6.80;99.90;;;;;;4995653;28;20034;-57
2022/01/14 08:17:16;;;;;;;26.35;10.02;;;6.80;99.90;;;;;;4973467;28;20221;-58
2022/01/14 08:19:42;;;;;;;21.27;10.07;;;6.80;99.90;;;;;;4979964;28;20073;-57
2022/01/14 08:22:08;;;;;;;20.05;8.60;;;6.80;99.90;;;;;;4995872;28;20124;-56
2022/01/14 08:24:34;;;;;;;19.17;8.82;;;6.80;99.90;;;;;;4996523;28;20053;-58
2022/01/14 08:27:01;;;;;;;17.77;7.85;;;6.80;99.90;;;;;;4980303;28;20103;-58
2022/01/14 08:29:30;;;;;;;25.85;7.72;;;6.80;99.90;;;;;;4992421;28;20049;-58
2022/01/14 08:31:56;;;;;;;22.48;7.40;;;6.80;99.90;;;;;;4979002;28;20046;-58
2022/01/14 08:34:24;;;;;;;21.48;6.70;;;6.80;99.90;;;;;;5006950;28;20038;-59
2022/01/14 08:36:50;;;;;;;16.45;5.35;;;6.90;99.90;;;;;;4989279;28;20485;-59
2022/01/14 08:39:16;;;;;;;16.70;5.55;;;6.90;99.90;;;;;;4984296;28;20041;-58
2022/01/14 08:41:42;;;;;;;15.27;6.68;;;6.90;99.90;;;;;;5009564;28;20573;-58
2022/01/14 08:44:08;;;;;;;13.35;4.90;;;6.90;99.90;;;;;;5012044;28;20030;-59
2022/01/14 08:46:34;;;;;;;14.43;4.97;;;6.90;99.90;;;;;;4963528;28;20038;-58
2022/01/14 08:49:01;;;;;;;20.35;6.18;;;6.90;99.90;;;;;;4975410;28;20050;-58
2022/01/14 08:51:28;;;;;;;15.93;4.82;;;6.90;99.90;;;;;;5007789;28;20449;-57
2022/01/14 08:53:54;;;;;;;16.27;4.43;;;7.00;99.90;;;;;;5013708;28;20496;-58
2022/01/14 08:56:20;;;;;;;14.65;5.03;;;7.00;99.90;;;;;;4997817;28;20046;-57
2022/01/14 08:58:46;;;;;;;12.48;4.60;;;7.00;99.90;;;;;;4967511;28;20464;-58
2022/01/14 09:01:12;;;;;;;8.18;3.75;;;7.10;99.90;;;;;;4992072;28;20155;-59
2022/01/14 09:03:37;;;;;;;18.17;4.53;;;7.10;99.90;;;;;;4996694;28;20065;-59
2022/01/14 09:06:03;;;;;;;21.00;4.38;;;7.10;99.90;;;;;;4993869;27;20107;-57
2022/01/14 09:08:30;;;;;;;17.45;3.88;;;7.10;99.90;;;;;;4978365;28;20163;-57
2022/01/14 09:10:56;;;;;;;14.30;4.85;;;7.20;99.90;;;;;;4977109;28;20050;-58
2022/01/14 09:13:21;;;;;;;12.75;3.95;;;7.20;99.90;;;;;;4985524;28;20604;-58
2022/01/14 09:15:47;;;;;;;13.05;4.72;;;7.20;99.90;;;;;;4977371;28;20042;-58
2022/01/14 09:18:13;;;;;;;15.02;4.55;;;7.20;99.90;;;;;;4986535;28;20040;-58
2022/01/14 09:20:39;;;;;;;14.70;3.80;;;7.20;99.90;;;;;;4996036;28;20491;-58
2022/01/14 09:23:11;;;;;;;11.57;3.78;;;7.20;99.90;;;;;;4985166;28;20496;-58
2022/01/14 09:25:37;;;;;;;15.85;3.53;;;7.20;99.90;;;;;;4994397;28;20241;-58
2022/01/14 09:28:03;;;;;;;20.60;3.97;;;7.30;99.90;;;;;;5011094;27;20476;-59
2022/01/14 09:30:29;;;;;;;15.98;4.25;;;7.30;99.90;;;;;;4967250;28;20046;-57
2022/01/14 09:32:55;;;;;;;20.75;5.13;;;7.30;99.90;;;;;;4989321;28;20038;-58
2022/01/14 09:35:21;;;;;;;15.10;3.70;;;7.30;99.90;;;;;;4997455;28;20052;-59
2022/01/14 09:37:47;;;;;;;15.77;4.30;;;7.40;99.90;;;;;;4987880;28;20056;-58
2022/01/14 09:40:16;;;;;;;14.02;3.92;;;7.40;99.90;;;;;;4988274;28;20453;-58
2022/01/14 09:42:49;;;;;;;17.77;4.05;;;7.40;99.90;;;;;;4996311;28;20399;-58
2022/01/14 09:45:15;;;;;;;17.25;3.85;;;7.40;99.90;;;;;;4998524;28;20033;-59
2022/01/14 09:47:42;;;;;;;12.98;2.90;;;7.40;99.90;;;;;;4990561;28;20121;-58
2022/01/14 09:50:09;;;;;;;16.27;3.72;;;7.40;99.90;;;;;;4999049;28;20045;-59
2022/01/14 09:52:35;;;;;;;18.25;3.03;;;7.40;99.90;;;;;;4990634;28;20094;-57
2022/01/14 09:55:01;;;;;;;13.48;3.50;;;7.30;99.90;;;;;;4987832;28;20053;-59
2022/01/14 09:57:27;;;;;;;17.55;4.20;;;7.40;99.90;;;;;;5002698;28;20045;-57
2022/01/14 09:59:53;;;;;;;28.63;3.85;;;7.40;99.90;;;;;;4996498;28;20105;-58
2022/01/14 10:02:40;;;;;;;16.92;5.80;;;7.40;99.90;;;;;;5001742;28;20037;-58
2022/01/14 10:05:09;;;;;;;19.88;3.70;;;7.50;99.90;;;;;;4996250;28;20038;-57
2022/01/14 10:07:35;;;;;;;12.43;3.30;;;7.50;99.90;;;;;;5008413;27;20076;-58
2022/01/14 10:10:21;;;;;;;11.27;3.90;;;7.50;99.90;;;;;;4994186;28;20041;-58
2022/01/14 10:12:47;;;;;;;17.13;3.72;;;7.50;99.90;;;;;;4989014;28;20125;-57
2022/01/14 10:15:13;;;;;;;11.32;4.13;;;7.50;99.90;;;;;;4989546;28;20050;-58
2022/01/14 10:17:42;;;;;;;19.50;3.88;;;7.50;99.90;;;;;;4999117;27;20498;-58
2022/01/14 10:20:13;;;;;;;23.38;4.32;;;7.50;99.90;;;;;;5001469;28;20057;-59
2022/01/14 10:22:43;;;;;;;17.48;4.53;;;7.50;99.90;;;;;;4979949;28;20392;-59
2022/01/14 10:25:16;;;;;;;13.82;3.70;;;7.60;99.90;;;;;;5007325;28;20049;-58
2022/01/14 10:27:45;;;;;;;14.18;4.20;;;7.60;99.90;;;;;;4993552;28;20041;-58
2022/01/14 10:30:21;;;;;;;19.13;4.88;;;7.60;99.90;;;;;;5001943;28;20037;-57
2022/01/14 10:32:55;;;;;;;18.77;4.15;;;7.50;99.90;;;;;;4992052;28;20052;-59
2022/01/14 10:35:23;;;;;;;14.02;4.20;;;7.50;99.90;;;;;;4978823;28;20042;-57
2022/01/14 10:37:49;;;;;;;18.17;3.95;;;7.50;99.90;;;;;;4992451;28;20133;-58
2022/01/14 10:40:19;;;;;;;13.82;3.63;;;7.50;99.90;;;;;;4995349;28;20053;-58
2022/01/14 10:42:47;;;;;;;20.38;4.03;;;7.50;99.90;;;;;;4988859;28;20431;-56
2022/01/14 10:45:22;;;;;;;12.20;4.32;;;7.50;99.90;;;;;;4970078;28;20225;-57
2022/01/14 10:48:28;;;;;;;19.15;4.32;;;7.50;99.90;;;;;;4995733;28;20042;-58
2022/01/14 10:50:55;;;;;;;16.80;3.53;;;7.50;99.90;;;;;;5005430;28;20115;-58
2022/01/14 10:53:26;;;;;;;17.08;3.80;;;7.50;99.90;;;;;;4985618;28;21056;-57
2022/01/14 10:55:58;;;;;;;15.52;3.33;;;7.50;99.90;;;;;;4992438;28;20059;-56
2022/01/14 10:58:29;;;;;;;13.35;3.80;;;7.50;99.90;;;;;;4965199;28;20054;-59
2022/01/14 11:01:01;;;;;;;13.93;4.68;;;7.50;99.90;;;;;;5012665;28;21839;-59
2022/01/14 11:03:36;;;;;;;19.48;4.35;;;7.50;99.90;;;;;;4990909;28;20045;-61
2022/01/14 11:06:30;;;;;;;16.40;3.45;;;7.50;99.90;;;;;;4988597;28;20045;-58
2022/01/14 11:09:01;;;;;;;17.08;4.30;;;7.50;99.90;;;;;;4995103;28;20045;-59
2022/01/14 11:11:29;;;;;;;14.38;3.65;;;7.50;99.90;;;;;;5007381;28;20083;-61
2022/01/14 11:13:55;;;;;;;15.88;4.97;;;7.50;99.90;;;;;;4982407;28;20053;-56
2022/01/14 11:16:21;;;;;;;18.17;4.68;;;7.60;99.90;;;;;;4996386;28;20042;-59
2022/01/14 11:18:47;;;;;;;18.33;4.20;;;7.60;99.90;;;;;;4995730;28;20042;-58
2022/01/14 11:23:58;;;;;;;16.65;3.70;;;7.60;99.90;;;;;;4968726;28;20085;-58
2022/01/14 11:26:32;;;;;;;19.40;4.47;;;7.60;99.90;;;;;;5002282;27;20042;-57
2022/01/14 11:29:13;;;;;;;23.38;5.90;;;7.60;99.90;;;;;;5002498;28;20458;-58
2022/01/14 11:31:41;;;;;;;15.13;4.03;;;7.60;99.90;;;;;;4977259;23;20063;-62
2022/01/14 11:34:27;;;;;;;19.05;4.35;;;7.50;99.90;;;;;;4940105;28;20043;-61
2022/01/14 11:36:56;;;;;;;17.25;4.45;;;7.60;99.90;;;;;;4958596;28;20034;-61
2022/01/14 11:39:25;;;;;;;16.77;4.20;;;7.60;99.90;;;;;;4941355;28;20042;-61
2022/01/14 11:41:56;;;;;;;17.80;3.88;;;7.60;99.90;;;;;;4967329;28;20058;-62
2022/01/14 11:44:41;;;;;;;12.18;3.80;;;7.60;99.90;;;;;;4977984;28;20057;-65
2022/01/14 11:47:07;;;;;;;18.00;4.28;;;7.60;99.90;;;;;;4971426;28;21147;-61
2022/01/14 11:49:38;;;;;;;20.52;4.07;;;7.60;99.90;;;;;;4973713;28;20129;-61
2022/01/14 11:52:08;;;;;;;15.30;4.00;;;7.70;99.90;;;;;;4967530;28;20429;-62
2022/01/14 11:54:52;;;;;;;24.08;5.10;;;7.70;99.90;;;;;;4962632;28;20046;-65
2022/01/14 11:57:39;;;;;;;21.20;4.88;;;7.70;99.90;;;;;;4972511;28;20045;-61
2022/01/14 12:00:25;;;;;;;17.10;4.72;;;7.70;99.90;;;;;;4961819;28;20157;-63
2022/01/14 12:02:52;;;;;;;20.58;5.10;;;7.70;99.90;;;;;;4975074;28;20038;-61
2022/01/14 12:05:20;;;;;;;28.83;5.90;;;7.80;99.90;;;;;;4955412;28;20050;-61
2022/01/14 12:08:05;;;;;;;20.13;4.65;;;7.70;99.90;;;;;;4962857;28;20164;-61
2022/01/14 12:10:32;;;;;;;20.58;4.72;;;7.80;99.90;;;;;;4961536;28;20104;-61
2022/01/14 12:16:05;;;;;;;24.45;6.68;;;7.80;99.90;;;;;;4971649;28;20058;-61
2022/01/14 12:18:58;;;;;;;25.42;7.60;;;7.80;99.90;;;;;;4953932;28;20043;-62
2022/01/14 12:21:50;;;;;;;20.02;7.00;;;7.80;99.90;;;;;;4954531;28;20702;-62
2022/01/14 12:24:16;;;;;;;22.85;6.80;;;7.80;99.90;;;;;;4954752;28;20062;-60
2022/01/14 12:26:58;;;;;;;18.45;5.47;;;7.90;99.90;;;;;;4969332;28;20043;-63
2022/01/14 12:29:40;;;;;;;23.73;5.70;;;7.80;99.90;;;;;;4948585;28;20039;-63
2022/01/14 12:32:13;;;;;;;16.75;5.18;;;7.80;99.90;;;;;;4952018;28;20049;-61
2022/01/14 12:34:48;;;;;;;17.10;4.25;;;7.80;99.90;;;;;;4967008;28;20042;-62
2022/01/14 12:37:32;;;;;;;21.73;5.20;;;7.90;99.90;;;;;;4967598;28;20575;-64
2022/01/14 12:40:08;;;;;;;16.65;5.93;;;7.90;99.90;;;;;;4972442;28;20207;-61
2022/01/14 12:42:34;;;;;;;20.10;4.95;;;7.90;99.90;;;;;;4966640;28;21756;-61
2022/01/14 12:45:00;;;;;;;23.58;5.20;;;7.90;99.90;;;;;;4963704;28;20046;-61
2022/01/14 12:47:31;;;;;;;18.50;5.28;;;8.00;99.90;;;;;;5035616;28;20057;-63
2022/01/14 12:50:01;;;;;;;21.30;6.15;;;8.00;99.90;;;;;;4973594;28;20035;-62
2022/01/14 12:52:37;;;;;;;21.45;5.63;;;7.90;99.90;;;;;;4936882;28;20047;-62
2022/01/14 12:55:05;;;;;;;42.80;6.57;;;7.90;99.90;;;;;;4972707;28;20069;-61
2022/01/14 12:57:31;;;;;;;29.25;6.25;;;7.90;99.90;;;;;;4975024;28;20493;-64
2022/01/14 12:59:57;;;;;;;25.98;5.97;;;8.00;99.90;;;;;;4969741;28;20050;-63
2022/01/14 13:02:24;;;;;;;29.35;5.15;;;7.90;99.90;;;;;;4957264;28;20054;-62
2022/01/14 13:05:05;;;;;;;22.75;6.22;;;7.90;99.90;;;;;;4971573;28;20043;-62
2022/01/14 13:07:32;;;;;;;36.28;6.07;;;7.90;99.90;;;;;;4958169;28;20054;-62
2022/01/14 13:09:57;;;;;;;39.78;7.10;;;7.90;99.90;;;;;;4959960;28;20046;-64
2022/01/14 13:12:29;;;;;;;32.30;4.78;;;7.90;99.90;;;;;;4961949;28;20532;-61
2022/01/14 13:15:03;;;;;;;17.33;4.82;;;7.90;99.90;;;;;;5020238;28;20035;-63
2022/01/14 13:17:33;;;;;;;31.27;6.65;;;7.90;99.90;;;;;;4960990;28;20082;-62
2022/01/14 13:20:12;;;;;;;30.98;5.72;;;7.90;99.90;;;;;;4978349;28;20034;-64